Time;durP1;ratioP1;P1;durP2;ratioP2;P2;SDS_P1;SDS_P2;PMS_P1;PMS_P2;Temp;Humidity;BMP_temperature;BMP_pressure;BME280_temperature;BME280_humidity;BME280_pressure;Samples;Min_cycle;Max_cycle;Signal;HPM_P1;HPM_P2
2021/12/13 00:00:55;;;;;;;7.35;4.57;;;;;;;2.07;84.91;99184.34;2567721;28;20054;-71
2021/12/13 00:02:41;;;;;;;6.93;3.85;;;;;;;1.99;85.16;99179.03;2567817;28;20050;-71
2021/12/13 00:04:07;;;;;;;7.78;4.55;;;;;;;2.02;84.83;99180.78;2568039;28;20061;-71
2021/12/13 00:05:40;;;;;;;9.00;3.95;;;;;;;2.03;85.01;99188.56;2567609;28;20093;-70
2021/12/13 00:07:05;;;;;;;6.97;4.57;;;;;;;2.03;84.98;99187.72;2567078;28;20050;-71
2021/12/13 00:08:30;;;;;;;6.90;4.28;;;;;;;2.07;85.01;99186.94;2567861;28;20453;-71
2021/12/13 00:09:49;;;;;;;7.50;4.65;;;;;;;2.04;84.70;99192.03;2567739;28;20062;-71
2021/12/13 00:11:13;;;;;;;8.73;4.57;;;;;;;2.00;84.90;99190.22;2567811;28;20091;-71
2021/12/13 00:12:37;;;;;;;7.90;4.28;;;;;;;2.06;84.92;99195.53;2568017;28;20050;-71
2021/12/13 00:13:57;;;;;;;9.40;4.95;;;;;;;2.01;85.02;99194.56;2567564;28;20088;-71
2021/12/13 00:15:22;;;;;;;7.75;4.35;;;;;;;2.05;84.92;99191.19;2567535;28;20570;-70
2021/12/13 00:16:41;;;;;;;8.30;4.32;;;;;;;2.02;85.04;99189.44;2567896;28;20046;-70
2021/12/13 00:17:58;;;;;;;8.25;5.38;;;;;;;1.98;85.15;99185.06;2567824;28;20112;-71
2021/12/13 00:19:21;;;;;;;8.05;4.38;;;;;;;2.10;84.72;99181.81;2567780;28;20429;-70
2021/12/13 00:20:44;;;;;;;10.07;4.75;;;;;;;2.15;84.59;99176.72;2567380;28;20055;-70
2021/12/13 00:22:10;;;;;;;6.25;4.20;;;;;;;2.03;84.98;99182.56;2567863;28;20051;-70
2021/12/13 00:23:31;;;;;;;7.97;4.70;;;;;;;2.03;84.66;99183.41;2567693;28;20499;-71
2021/12/13 00:24:49;;;;;;;7.88;4.65;;;;;;;1.97;85.04;99181.59;2567504;28;20047;-70
2021/12/13 00:26:05;;;;;;;8.15;5.07;;;;;;;1.95;85.04;99187.56;2567616;28;20042;-71
2021/12/13 00:27:26;;;;;;;8.88;5.40;;;;;;;1.82;85.42;99187.34;2567781;28;20057;-70
2021/12/13 00:28:43;;;;;;;7.65;4.60;;;;;;;1.77;85.58;99195.84;2567729;28;20074;-70
2021/12/13 00:29:59;;;;;;;9.13;4.80;;;;;;;1.68;85.90;99194.81;2567527;28;20596;-70
2021/12/13 00:31:26;;;;;;;8.32;4.85;;;;;;;1.62;86.16;99188.66;2567561;28;20077;-71
2021/12/13 00:32:56;;;;;;;8.95;5.32;;;;;;;1.53;86.39;99192.75;2567610;28;20050;-71
2021/12/13 00:34:20;;;;;;;10.27;5.70;;;;;;;1.49;86.72;99190.97;2567401;28;20081;-71
2021/12/13 00:35:45;;;;;;;9.98;5.88;;;;;;;1.48;86.93;99189.22;2556854;29;20051;-71
2021/12/13 00:37:23;;;;;;;10.48;6.13;;;;;;;1.61;87.07;99186.91;2562285;28;20061;-70
2021/12/13 00:38:44;;;;;;;9.50;5.05;;;;;;;1.79;86.67;99187.25;2567637;28;20403;-71
2021/12/13 00:40:22;;;;;;;13.50;5.93;;;;;;;1.77;86.19;99190.69;2567572;28;20118;-70
2021/12/13 00:41:43;;;;;;;11.02;6.07;;;;;;;1.75;86.19;99184.63;2567226;28;20055;-71
2021/12/13 00:43:19;;;;;;;9.77;5.40;;;;;;;1.68;86.31;99183.63;2567588;28;20080;-71
2021/12/13 00:44:45;;;;;;;10.30;5.88;;;;;;;1.63;86.39;99180.94;2567507;28;20055;-70
2021/12/13 00:46:05;;;;;;;10.98;5.72;;;;;;;1.57;86.45;99175.63;2567572;28;20081;-71
2021/12/13 00:47:33;;;;;;;11.45;6.43;;;;;;;1.68;86.70;99178.47;2567667;28;20051;-71
2021/12/13 00:48:53;;;;;;;9.50;5.25;;;;;;;1.85;85.78;99177.91;2567398;28;20077;-71
2021/12/13 00:50:11;;;;;;;11.35;5.50;;;;;;;1.84;85.59;99179.59;2567325;28;20067;-70
2021/12/13 00:51:32;;;;;;;9.57;5.10;;;;;;;1.91;85.50;99178.91;2567599;28;20078;-71
2021/12/13 00:52:49;;;;;;;7.40;4.82;;;;;;;1.81;85.68;99183.00;2567340;28;20074;-70
2021/12/13 00:54:19;;;;;;;8.93;4.47;;;;;;;1.88;85.70;99177.97;2567410;28;20071;-71
2021/12/13 00:55:36;;;;;;;7.97;4.68;;;;;;;1.98;85.27;99178.16;2567556;28;20137;-70
2021/12/13 00:57:00;;;;;;;9.07;5.00;;;;;;;2.08;84.90;99175.75;2567557;28;20058;-71
2021/12/13 00:58:25;;;;;;;8.70;5.18;;;;;;;2.13;84.21;99183.59;2567504;28;20078;-71
2021/12/13 00:59:46;;;;;;;9.25;5.32;;;;;;;2.08;84.34;99180.91;2567281;28;20054;-71
2021/12/13 01:01:08;;;;;;;8.73;5.45;;;;;;;1.96;84.66;99177.25;2556638;29;20051;-71
2021/12/13 01:02:27;;;;;;;;;;;;;;;1.95;85.10;99182.38;2562599;28;20464;-71
2021/12/13 01:03:49;;;;;;;7.53;4.47;;;;;;;2.00;85.12;99187.66;2567560;28;20479;-70
2021/12/13 01:05:35;;;;;;;7.68;4.90;;;;;;;2.02;84.92;99178.22;2567288;28;20137;-71
2021/12/13 01:07:34;;;;;;;7.68;4.93;;;;;;;2.08;84.66;99186.94;2567485;28;20058;-71
2021/12/13 01:09:37;;;;;;;7.80;4.30;;;;;;;2.06;84.54;99178.28;2567230;28;20097;-71
2021/12/13 01:10:53;;;;;;;8.85;4.35;;;;;;;2.12;84.40;99182.72;2567104;28;20059;-70
2021/12/13 01:12:13;;;;;;;7.75;4.47;;;;;;;2.08;84.76;99186.94;2567314;28;20409;-70
2021/12/13 01:13:35;;;;;;;9.15;4.28;;;;;;;2.08;84.49;99184.34;2567316;28;20525;-71
2021/12/13 01:15:14;;;;;;;6.45;4.30;;;;;;;2.07;84.68;99185.19;2567106;28;20054;-71
2021/12/13 01:16:49;;;;;;;7.38;3.72;;;;;;;2.07;84.43;99184.34;2567373;28;21047;-71
2021/12/13 01:18:27;;;;;;;5.65;3.75;;;;;;;2.05;85.13;99186.03;2567256;28;20581;-71
2021/12/13 01:19:54;;;;;;;5.90;3.92;;;;;;;2.20;84.30;99182.84;2567058;28;20050;-71
2021/12/13 01:21:27;;;;;;;6.97;4.05;;;;;;;2.21;84.10;99188.06;2567254;28;20422;-71
2021/12/13 01:23:00;;;;;;;6.78;3.78;;;;;;;2.13;84.41;99191.34;2567312;28;20093;-70
2021/12/13 01:24:40;;;;;;;6.63;3.97;;;;;;;2.01;84.68;99192.84;2567036;28;20533;-71
2021/12/13 01:26:13;;;;;;;4.85;3.30;;;;;;;2.06;84.96;99196.38;2567251;28;20047;-70
2021/12/13 01:27:43;;;;;;;5.70;3.60;;;;;;;2.08;84.77;99184.34;2567132;28;20105;-72
2021/12/13 01:29:05;;;;;;;5.78;3.72;;;;;;;2.08;84.74;99189.53;2567126;28;20050;-71
2021/12/13 01:30:34;;;;;;;6.15;4.10;;;;;;;2.06;84.88;99192.94;2556368;29;20102;-71
2021/12/13 01:31:54;;;;;;;5.85;3.50;;;;;;;2.14;85.04;99188.78;2562615;28;20051;-71
2021/12/13 01:33:13;;;;;;;5.60;3.95;;;;;;;2.11;84.74;99192.19;2567148;28;20089;-71
2021/12/13 01:34:33;;;;;;;6.13;3.83;;;;;;;2.06;84.95;99191.22;2567190;28;20050;-70
2021/12/13 01:35:54;;;;;;;5.57;3.67;;;;;;;2.15;84.93;99197.41;2567017;28;20764;-70
2021/12/13 01:37:15;;;;;;;6.03;3.95;;;;;;;2.15;84.76;99195.66;2567326;28;20051;-70
2021/12/13 01:38:36;;;;;;;5.80;3.95;;;;;;;2.17;84.96;99194.00;2567408;28;20054;-70
2021/12/13 01:39:53;;;;;;;6.22;4.05;;;;;;;2.23;84.59;99198.38;2566947;28;20055;-70
2021/12/13 01:41:16;;;;;;;7.05;4.28;;;;;;;2.21;84.53;99197.50;2567064;28;20081;-71
2021/12/13 01:42:31;;;;;;;6.78;4.28;;;;;;;2.21;84.40;99197.50;2567307;28;20082;-70
2021/12/13 01:43:51;;;;;;;5.63;4.05;;;;;;;2.16;84.47;99197.41;2567004;28;20098;-70
2021/12/13 01:45:12;;;;;;;6.22;4.50;;;;;;;2.06;84.76;99201.53;2566936;28;20130;-71
2021/12/13 01:46:33;;;;;;;6.45;3.95;;;;;;;2.04;85.02;99199.78;2567382;28;20508;-71
2021/12/13 01:47:49;;;;;;;6.90;4.45;;;;;;;2.00;85.12;99201.44;2567304;28;20413;-70
2021/12/13 01:49:06;;;;;;;7.57;4.65;;;;;;;2.03;85.06;99193.75;2567038;28;20059;-71
2021/12/13 01:50:41;;;;;;;8.20;4.38;;;;;;;2.01;84.86;99194.56;2567139;28;20414;-70
2021/12/13 01:51:58;;;;;;;6.80;4.25;;;;;;;2.08;84.92;99197.28;2566958;28;20047;-71
2021/12/13 01:53:17;;;;;;;7.25;4.30;;;;;;;2.06;85.02;99191.22;2566863;28;20054;-70
2021/12/13 01:54:38;;;;;;;9.35;4.90;;;;;;;2.08;84.92;99194.69;2567027;28;20070;-70
2021/12/13 01:55:58;;;;;;;7.00;4.57;;;;;;;2.10;84.77;99198.19;2567242;28;20573;-71
2021/12/13 01:58:41;;;;;;;7.10;4.30;;;;;;;2.24;83.66;99193.25;2567339;28;20446;-70
2021/12/13 02:00:09;;;;;;;6.28;3.83;;;;;;;2.29;83.83;99190.75;2567092;28;20055;-70
2021/12/13 02:01:24;;;;;;;7.57;4.47;;;;;;;2.26;83.98;99193.31;2567235;28;20055;-71
2021/12/13 02:02:51;;;;;;;6.93;4.25;;;;;;;2.29;84.33;99189.88;2567192;28;20057;-71
2021/12/13 02:04:10;;;;;;;7.00;4.15;;;;;;;2.22;84.22;99197.53;2567135;28;20078;-70
2021/12/13 02:05:32;;;;;;;7.25;4.40;;;;;;;2.21;84.57;99200.97;2566785;28;20060;-70
2021/12/13 02:06:51;;;;;;;6.50;3.90;;;;;;;2.19;84.48;99196.59;2567188;28;20074;-70
2021/12/13 02:08:12;;;;;;;7.18;4.22;;;;;;;2.14;84.53;99199.09;2566918;28;20054;-70
2021/12/13 02:09:32;;;;;;;5.88;4.28;;;;;;;2.11;84.84;99202.53;2566880;28;20102;-70
2021/12/13 02:10:52;;;;;;;5.95;3.90;;;;;;;2.18;84.44;99205.19;2566946;28;20054;-71
2021/12/13 02:12:13;;;;;;;8.18;4.05;;;;;;;2.20;84.30;99204.41;2567237;28;20047;-70
2021/12/13 02:13:37;;;;;;;6.18;4.20;;;;;;;2.19;84.34;99197.50;2567057;28;20516;-71
2021/12/13 02:18:14;;;;;;;5.93;4.15;;;;;;;2.08;84.87;99199.00;2567080;28;20050;-70
2021/12/13 02:19:57;;;;;;;6.00;3.90;;;;;;;2.12;84.70;99205.97;2566666;28;20057;-70
2021/12/13 02:21:27;;;;;;;6.07;3.90;;;;;;;2.07;84.42;99199.84;2567223;28;20059;-71
2021/12/13 02:22:49;;;;;;;6.32;4.22;;;;;;;1.98;84.99;99198.81;2567187;28;20059;-70
2021/12/13 02:24:09;;;;;;;7.20;4.43;;;;;;;1.95;85.21;99200.47;2567127;28;20062;-70
2021/12/13 02:25:36;;;;;;;7.07;3.95;;;;;;;1.92;85.29;99208.16;2566643;28;20965;-70
2021/12/13 02:26:53;;;;;;;6.22;3.97;;;;;;;1.99;85.45;99202.28;2566879;28;20066;-70
2021/12/13 02:28:11;;;;;;;6.13;3.95;;;;;;;2.08;84.97;99206.75;2566714;28;20470;-70
2021/12/13 02:29:36;;;;;;;5.97;4.20;;;;;;;2.07;84.97;99205.88;2566801;28;20057;-70
2021/12/13 02:30:57;;;;;;;6.35;3.85;;;;;;;2.06;85.19;99214.47;2567727;28;20505;-70
2021/12/13 02:32:13;;;;;;;7.40;4.38;;;;;;;2.04;84.99;99205.81;2568703;28;20441;-71
2021/12/13 02:33:40;;;;;;;7.70;4.47;;;;;;;2.00;85.21;99208.31;2568565;28;20050;-70
2021/12/13 02:34:58;;;;;;;7.55;4.15;;;;;;;2.00;85.53;99216.94;2568328;28;20581;-70
2021/12/13 02:36:31;;;;;;;7.05;3.90;;;;;;;2.00;85.63;99209.19;2568758;28;20218;-70
2021/12/13 02:37:46;;;;;;;;;;;;;;;2.07;85.44;99211.03;2569400;28;20516;-70
2021/12/13 02:39:21;;;;;;;5.75;3.53;;;;;;;2.02;85.46;99210.09;2568341;28;19926;-70
2021/12/13 02:40:37;;;;;;;5.50;3.50;;;;;;;2.03;85.28;99201.50;2568580;28;20054;-70
2021/12/13 02:41:53;;;;;;;5.90;4.10;;;;;;;2.00;85.49;99204.03;2568330;28;20584;-70
2021/12/13 02:43:11;;;;;;;7.28;4.05;;;;;;;2.02;85.31;99207.50;2568627;28;20054;-71
2021/12/13 02:44:38;;;;;;;6.25;3.88;;;;;;;1.99;85.59;99204.88;2568422;28;20473;-70
2021/12/13 02:45:56;;;;;;;5.97;3.80;;;;;;;1.96;85.67;99203.09;2568527;28;20043;-71
2021/12/13 02:47:22;;;;;;;7.43;3.90;;;;;;;1.92;85.51;99208.16;2568617;28;20057;-70
2021/12/13 02:48:42;;;;;;;5.47;3.55;;;;;;;1.86;85.74;99202.88;2568644;28;20137;-71
2021/12/13 02:49:58;;;;;;;4.75;3.45;;;;;;;1.83;85.73;99209.75;2568337;28;20148;-71
2021/12/13 02:51:47;;;;;;;7.32;4.15;;;;;;;1.85;86.10;99207.16;2568420;28;20042;-71
2021/12/13 02:53:04;;;;;;;6.20;3.88;;;;;;;1.82;86.12;99208.00;2568390;28;20194;-70
2021/12/13 02:54:29;;;;;;;6.22;4.30;;;;;;;1.81;86.13;99197.63;2568384;28;20059;-70
2021/12/13 02:55:46;;;;;;;6.00;4.10;;;;;;;1.77;86.22;99208.75;2568526;28;20050;-70
2021/12/13 02:57:11;;;;;;;6.75;4.00;;;;;;;1.73;86.36;99205.22;2568547;28;20053;-70
2021/12/13 02:58:27;;;;;;;6.65;4.13;;;;;;;1.91;86.48;99206.41;2568362;28;20051;-70
2021/12/13 03:00:09;;;;;;;7.47;4.38;;;;;;;2.11;85.62;99207.69;2568078;28;20058;-70
2021/12/13 03:01:34;;;;;;;6.35;4.18;;;;;;;2.00;85.26;99208.31;2567979;28;20540;-70
2021/12/13 03:02:53;;;;;;;6.53;4.25;;;;;;;1.91;85.53;99211.59;2568497;28;20612;-70
2021/12/13 03:04:14;;;;;;;7.47;4.50;;;;;;;1.86;85.80;99205.47;2568159;28;20055;-70
2021/12/13 03:05:34;;;;;;;6.60;4.05;;;;;;;1.83;85.89;99207.16;2568323;28;20074;-70
2021/12/13 03:06:59;;;;;;;7.80;4.55;;;;;;;1.88;86.10;99209.81;2568601;28;20386;-70
2021/12/13 03:08:28;;;;;;;7.60;4.60;;;;;;;1.85;85.75;99216.66;2568492;28;20057;-70
2021/12/13 03:09:47;;;;;;;7.25;4.15;;;;;;;1.75;85.70;99213.88;2568192;28;20141;-71
2021/12/13 03:11:21;;;;;;;6.35;4.30;;;;;;;1.69;85.75;99219.78;2568445;28;20202;-70
2021/12/13 03:12:38;;;;;;;6.57;4.18;;;;;;;1.65;86.21;99223.16;2567839;28;20518;-70
2021/12/13 03:14:01;;;;;;;8.10;4.40;;;;;;;1.63;86.21;99214.50;2568305;28;20058;-70
2021/12/13 03:15:21;;;;;;;7.63;4.88;;;;;;;1.62;86.35;99219.63;2568281;28;20085;-70
2021/12/13 03:16:46;;;;;;;7.90;5.18;;;;;;;1.61;86.48;99217.88;2568220;28;20047;-70
2021/12/13 03:18:15;;;;;;;8.23;4.40;;;;;;;1.64;86.68;99217.94;2568605;28;20070;-71
2021/12/13 03:19:40;;;;;;;7.63;3.97;;;;;;;1.68;86.82;99214.59;2567813;28;20097;-70
2021/12/13 03:21:01;;;;;;;6.10;4.03;;;;;;;1.70;86.89;99220.66;2568156;28;20059;-71
2021/12/13 03:23:11;;;;;;;6.03;3.83;;;;;;;1.66;86.79;99218.84;2568301;28;20146;-70
2021/12/13 03:24:41;;;;;;;6.28;4.07;;;;;;;1.64;86.80;99218.81;2536769;29;20482;-71
2021/12/13 03:26:47;;;;;;;7.75;4.10;;;;;;;1.61;86.62;99218.75;2536694;29;20052;-70
2021/12/13 03:28:10;;;;;;;6.90;4.28;;;;;;;1.63;86.98;99222.25;2536677;29;20055;-70
2021/12/13 03:29:58;;;;;;;8.23;4.75;;;;;;;1.70;87.09;99218.09;2544720;28;20559;-70
2021/12/13 03:31:25;;;;;;;7.03;4.10;;;;;;;1.83;86.93;99214.91;2568171;28;20129;-70
2021/12/13 03:32:53;;;;;;;6.72;4.28;;;;;;;1.88;86.63;99221.88;2568080;28;20055;-70
2021/12/13 03:34:17;;;;;;;6.45;3.80;;;;;;;1.86;86.49;99219.25;2567999;28;20407;-70
2021/12/13 03:35:43;;;;;;;7.10;3.60;;;;;;;2.03;86.21;99221.31;2568198;28;20058;-70
2021/12/13 03:37:20;;;;;;;6.70;4.15;;;;;;;2.16;85.57;99218.06;2567919;28;20171;-70
2021/12/13 03:38:40;;;;;;;5.25;3.25;;;;;;;2.12;85.30;99216.28;2568289;28;20059;-70
2021/12/13 03:39:59;;;;;;;7.00;3.80;;;;;;;2.16;85.27;99218.06;2568123;28;20054;-70
2021/12/13 03:41:22;;;;;;;5.53;3.67;;;;;;;2.24;85.27;99213.09;2567712;28;20449;-70
2021/12/13 03:42:44;;;;;;;6.75;3.83;;;;;;;2.31;84.91;99220.09;2568273;28;20553;-70
2021/12/13 03:44:05;;;;;;;5.88;3.60;;;;;;;2.34;84.85;99229.63;2568306;28;20405;-70
2021/12/13 03:45:30;;;;;;;6.72;4.07;;;;;;;2.28;84.88;99217.44;2567778;28;20102;-70
2021/12/13 03:46:47;;;;;;;6.43;3.75;;;;;;;2.21;85.03;99225.91;2568252;28;20506;-70
2021/12/13 03:48:06;;;;;;;6.88;3.97;;;;;;;2.19;85.12;99219.84;2568012;28;20063;-70
2021/12/13 03:49:25;;;;;;;6.28;4.13;;;;;;;2.11;85.30;99225.78;2567887;28;20457;-71
2021/12/13 03:50:46;;;;;;;6.93;4.38;;;;;;;2.02;85.63;99225.59;2567938;28;20061;-70
2021/12/13 03:52:02;;;;;;;7.45;4.07;;;;;;;2.00;86.01;99222.09;2567840;28;20062;-70
2021/12/13 03:53:22;;;;;;;7.90;4.47;;;;;;;1.97;86.02;99227.22;2566872;28;20058;-70
2021/12/13 03:54:39;;;;;;;6.10;3.83;;;;;;;1.93;86.33;99222.81;2567759;28;20504;-70
2021/12/13 03:56:03;;;;;;;6.75;4.07;;;;;;;1.92;86.59;99216.78;2568193;28;20051;-70
2021/12/13 03:57:20;;;;;;;6.40;3.92;;;;;;;1.95;86.70;99224.59;2567804;28;20411;-70
2021/12/13 03:58:42;;;;;;;6.38;4.10;;;;;;;1.97;86.69;99222.91;2567909;28;20051;-71
2021/12/13 03:59:59;;;;;;;6.75;4.07;;;;;;;1.95;86.72;99224.59;2567828;28;20391;-71
2021/12/13 04:01:26;;;;;;;6.55;4.13;;;;;;;1.94;86.69;99229.72;2567015;28;20137;-71
2021/12/13 04:02:42;;;;;;;5.22;3.45;;;;;;;2.01;86.58;99223.84;2568005;28;20050;-71
2021/12/13 04:04:00;;;;;;;5.88;3.80;;;;;;;2.01;86.48;99236.75;2568055;28;20074;-69
2021/12/13 04:05:19;;;;;;;5.45;3.63;;;;;;;2.18;85.39;99231.03;2567753;28;20058;-71
2021/12/13 04:06:42;;;;;;;4.78;3.25;;;;;;;2.15;85.43;99238.72;2567735;28;20051;-71
2021/12/13 04:08:03;;;;;;;6.00;3.78;;;;;;;2.15;85.01;99238.72;2567792;28;20458;-71
2021/12/13 04:09:21;;;;;;;5.18;3.78;;;;;;;2.15;85.37;99243.91;2567226;28;20461;-71
2021/12/13 04:10:41;;;;;;;5.57;3.40;;;;;;;2.25;84.85;99243.25;2567852;28;20062;-71
2021/12/13 04:12:02;;;;;;;4.45;3.30;;;;;;;2.29;84.89;99242.44;2567994;28;20480;-71
2021/12/13 04:13:22;;;;;;;5.35;3.40;;;;;;;2.33;84.38;99244.22;2567705;28;20538;-71
2021/12/13 04:14:43;;;;;;;4.70;3.65;;;;;;;2.27;84.53;99236.38;2567287;28;20149;-71
2021/12/13 04:16:16;;;;;;;6.65;3.67;;;;;;;2.24;84.58;99246.66;2567605;28;20047;-71
2021/12/13 04:17:42;;;;;;;4.75;3.42;;;;;;;2.25;84.94;99245.81;2567612;28;20077;-71
2021/12/13 04:19:10;;;;;;;4.95;3.17;;;;;;;2.30;84.85;99249.34;2567821;28;20194;-71
2021/12/13 04:20:34;;;;;;;5.63;3.63;;;;;;;2.32;84.75;99247.66;2567588;28;20065;-71
2021/12/13 04:22:02;;;;;;;6.00;3.25;;;;;;;2.43;84.58;99242.69;2567596;28;20050;-70
2021/12/13 04:23:22;;;;;;;4.53;3.10;;;;;;;2.40;84.35;99247.81;2567892;28;20197;-71
2021/12/13 04:24:54;;;;;;;7.93;4.00;;;;;;;2.42;84.42;99245.25;2566939;28;20449;-71
2021/12/13 04:26:11;;;;;;;5.78;3.60;;;;;;;2.36;84.45;99243.44;2567670;28;20059;-71
2021/12/13 04:27:31;;;;;;;5.57;3.35;;;;;;;2.32;84.99;99239.91;2567725;28;20078;-70
2021/12/13 04:28:50;;;;;;;7.43;3.92;;;;;;;2.30;85.04;99251.06;2566762;28;20050;-71
2021/12/13 04:30:38;;;;;;;4.57;3.17;;;;;;;2.25;85.18;99259.59;2565893;28;20062;-71
2021/12/13 04:31:58;;;;;;;5.88;3.35;;;;;;;2.17;85.69;99255.13;2567549;28;20494;-70
2021/12/13 04:33:27;;;;;;;4.00;2.90;;;;;;;2.15;85.95;99261.97;2567392;28;20050;-71
2021/12/13 04:34:43;;;;;;;6.07;3.47;;;;;;;2.07;85.92;99257.53;2567085;28;20146;-70
2021/12/13 04:36:07;;;;;;;4.95;3.28;;;;;;;2.03;85.98;99250.56;2567696;28;20054;-71
2021/12/13 04:37:31;;;;;;;5.28;3.38;;;;;;;2.06;86.21;99260.09;2567702;28;20485;-71
2021/12/13 04:38:58;;;;;;;5.07;3.30;;;;;;;2.14;86.06;99252.50;2567060;28;20134;-70
2021/12/13 04:40:19;;;;;;;5.35;3.47;;;;;;;2.14;85.87;99260.25;2567518;28;20497;-70
2021/12/13 04:41:38;;;;;;;5.95;3.50;;;;;;;2.19;85.56;99261.19;2565381;28;20065;-71
2021/12/13 04:43:08;;;;;;;5.38;3.20;;;;;;;2.23;85.38;99260.41;2567544;28;20505;-71
2021/12/13 04:44:38;;;;;;;6.05;3.70;;;;;;;2.24;85.25;99255.28;2567476;28;20055;-70
2021/12/13 04:45:57;;;;;;;6.05;3.28;;;;;;;2.30;85.04;99262.28;2567382;28;20058;-70
2021/12/13 04:47:20;;;;;;;6.60;4.10;;;;;;;2.30;84.80;99253.63;2567555;28;20242;-70
2021/12/13 04:48:38;;;;;;;4.35;3.05;;;;;;;2.35;84.82;99249.44;2567395;28;20047;-72
2021/12/13 04:50:04;;;;;;;5.70;3.50;;;;;;;2.38;84.67;99257.25;2567415;28;20050;-73
2021/12/13 04:51:26;;;;;;;6.30;3.50;;;;;;;2.47;84.68;99257.44;2567395;28;20057;-73
2021/12/13 04:52:44;;;;;;;5.50;3.50;;;;;;;2.46;84.52;99258.28;2567447;28;20082;-71
2021/12/13 04:54:00;;;;;;;5.05;3.60;;;;;;;2.47;84.02;99257.44;2566853;28;20058;-71
2021/12/13 04:55:22;;;;;;;5.75;3.67;;;;;;;2.51;84.19;99259.22;2567452;28;20413;-71
2021/12/13 04:56:39;;;;;;;5.63;3.63;;;;;;;2.49;84.13;99262.59;2567641;28;20054;-71
2021/12/13 04:57:59;;;;;;;5.13;3.38;;;;;;;2.48;84.06;99261.75;2567297;28;20469;-71
2021/12/13 04:59:17;;;;;;;6.55;3.65;;;;;;;2.39;84.21;99258.97;2567455;28;20082;-71
2021/12/13 05:00:38;;;;;;;5.22;3.72;;;;;;;2.32;84.56;99258.00;2566248;28;20347;-71
2021/12/13 05:01:58;;;;;;;5.10;3.78;;;;;;;2.40;84.70;99263.31;2565865;28;20055;-71
2021/12/13 05:03:16;;;;;;;5.88;3.75;;;;;;;2.53;84.41;99259.25;2566148;28;20046;-72
2021/12/13 05:04:33;;;;;;;5.80;3.85;;;;;;;2.51;84.10;99264.38;2565931;28;20482;-71
2021/12/13 05:05:49;;;;;;;6.88;3.38;;;;;;;2.50;84.67;99262.63;2565937;28;20042;-71
2021/12/13 05:07:06;;;;;;;5.40;3.58;;;;;;;2.51;84.18;99266.06;2566725;28;21038;-71
2021/12/13 05:08:22;;;;;;;5.95;3.92;;;;;;;2.46;84.73;99262.56;2567141;28;20134;-71
2021/12/13 05:09:38;;;;;;;4.45;3.40;;;;;;;2.56;84.29;99272.22;2567133;28;20113;-71
2021/12/13 05:10:54;;;;;;;5.95;3.67;;;;;;;2.42;83.87;99266.78;2567327;28;20564;-71
2021/12/13 05:12:14;;;;;;;5.28;3.65;;;;;;;2.36;84.48;99270.13;2567200;28;20383;-72
2021/12/13 05:13:30;;;;;;;5.72;3.72;;;;;;;2.43;84.54;99262.50;2567104;28;20136;-71
2021/12/13 05:14:52;;;;;;;5.35;3.47;;;;;;;2.54;84.39;99267.00;2566990;28;20150;-72
2021/12/13 05:16:10;;;;;;;5.13;3.47;;;;;;;2.64;83.75;99272.34;2567445;28;20054;-71
2021/12/13 05:17:37;;;;;;;4.75;3.40;;;;;;;2.60;83.57;99260.22;2567372;28;20145;-71
2021/12/13 05:18:57;;;;;;;6.85;3.53;;;;;;;2.54;83.91;99268.75;2567018;28;20050;-72
2021/12/13 05:20:31;;;;;;;6.07;3.38;;;;;;;2.52;84.21;99267.84;2567449;28;20466;-71
2021/12/13 05:21:51;;;;;;;5.40;3.70;;;;;;;2.47;84.25;99266.88;2567333;28;20548;-72
2021/12/13 05:23:10;;;;;;;4.88;3.25;;;;;;;2.44;84.53;99264.25;2566326;28;20039;-72
2021/12/13 05:24:32;;;;;;;6.35;3.22;;;;;;;2.49;84.27;99271.25;2566729;28;20077;-71
2021/12/13 05:26:05;;;;;;;4.53;3.28;;;;;;;2.62;84.42;99274.91;2566292;28;20061;-72
2021/12/13 05:27:32;;;;;;;4.40;3.05;;;;;;;2.62;83.66;99277.50;2567305;28;20090;-72
2021/12/13 05:28:51;;;;;;;5.10;2.92;;;;;;;2.55;84.24;99278.25;2567242;28;20055;-72
2021/12/13 05:30:19;;;;;;;4.82;3.42;;;;;;;2.58;83.84;99282.56;2567162;28;20081;-72
2021/12/13 05:31:35;;;;;;;4.82;3.28;;;;;;;2.60;83.99;99281.75;2563954;28;20058;-71
2021/12/13 05:32:56;;;;;;;5.32;3.15;;;;;;;2.62;84.10;99284.38;2564666;28;20051;-72
2021/12/13 05:34:12;;;;;;;5.82;3.42;;;;;;;2.62;84.12;99281.81;2564388;28;20505;-72
2021/12/13 05:35:34;;;;;;;5.57;3.33;;;;;;;2.53;84.25;99282.50;2564588;28;20150;-72
2021/12/13 05:36:57;;;;;;;5.15;3.45;;;;;;;2.51;84.26;99292.81;2564722;28;20051;-71
2021/12/13 05:38:26;;;;;;;5.18;3.47;;;;;;;2.51;84.64;99291.94;2564781;28;20489;-72
2021/12/13 05:39:58;;;;;;;4.47;3.33;;;;;;;2.61;84.28;99296.44;2564745;28;20082;-72
2021/12/13 05:41:26;;;;;;;5.07;3.20;;;;;;;2.66;83.98;99297.41;2564052;28;20055;-72
2021/12/13 05:42:45;;;;;;;6.20;3.60;;;;;;;2.71;83.85;99301.78;2564707;28;20066;-71
2021/12/13 05:44:08;;;;;;;5.50;3.60;;;;;;;2.64;84.04;99298.22;2564767;28;20081;-71
2021/12/13 05:45:37;;;;;;;4.18;3.08;;;;;;;2.63;84.15;99296.47;2564362;28;20098;-71
2021/12/13 05:46:54;;;;;;;5.43;3.38;;;;;;;2.66;83.87;99297.41;2564740;28;20082;-71
2021/12/13 05:48:33;;;;;;;4.30;3.15;;;;;;;2.67;83.74;99304.31;2564408;28;20494;-72
2021/12/13 05:49:50;;;;;;;7.85;3.55;;;;;;;2.62;83.90;99298.16;2564673;28;20047;-72
2021/12/13 05:51:19;;;;;;;4.60;3.15;;;;;;;2.53;84.33;99300.63;2564117;28;20078;-71
2021/12/13 05:52:38;;;;;;;4.63;3.25;;;;;;;2.57;84.09;99306.69;2564663;28;20050;-72
2021/12/13 05:54:00;;;;;;;4.63;2.88;;;;;;;2.50;84.45;99310.88;2564336;28;20051;-72
2021/12/13 05:55:15;;;;;;;4.57;2.83;;;;;;;2.58;84.33;99306.72;2564316;28;20141;-72
2021/12/13 05:56:45;;;;;;;5.35;3.40;;;;;;;2.67;83.56;99304.31;2564733;28;20478;-72
2021/12/13 05:58:01;;;;;;;5.18;3.20;;;;;;;2.57;83.69;99315.31;2564475;28;20078;-72
2021/12/13 05:59:24;;;;;;;4.90;3.28;;;;;;;2.63;83.81;99312.84;2564452;28;20050;-72
2021/12/13 06:00:41;;;;;;;4.35;2.88;;;;;;;2.62;83.54;99308.50;2564052;28;20058;-72
2021/12/13 06:02:06;;;;;;;4.47;3.08;;;;;;;2.62;83.46;99315.41;2564618;28;20043;-72
2021/12/13 06:03:32;;;;;;;4.20;2.90;;;;;;;2.67;83.66;99314.66;2564470;28;20370;-72
2021/12/13 06:05:04;;;;;;;4.70;3.22;;;;;;;2.61;83.59;99309.34;2564867;28;20113;-72
2021/12/13 06:06:25;;;;;;;5.43;3.30;;;;;;;2.62;83.93;99316.28;2566222;28;20100;-72
2021/12/13 06:07:42;;;;;;;4.93;3.35;;;;;;;2.63;83.78;99307.66;2566296;28;20109;-72
2021/12/13 06:08:58;;;;;;;4.63;3.28;;;;;;;2.68;83.62;99307.75;2567142;28;20138;-72
2021/12/13 06:10:18;;;;;;;5.95;3.20;;;;;;;2.66;83.60;99307.75;2566687;28;20054;-72
2021/12/13 06:11:34;;;;;;;4.80;3.20;;;;;;;2.61;83.79;99309.34;2566318;28;20137;-72
2021/12/13 06:12:59;;;;;;;4.45;3.13;;;;;;;2.63;84.02;99307.66;2566321;28;20082;-72
2021/12/13 06:14:21;;;;;;;4.40;3.03;;;;;;;2.68;83.76;99306.06;2566130;28;20057;-72
2021/12/13 06:15:40;;;;;;;4.80;3.28;;;;;;;2.71;83.53;99302.63;2566370;28;20478;-71
2021/12/13 06:17:18;;;;;;;4.40;3.25;;;;;;;2.61;83.68;99304.19;2566409;28;20082;-71
2021/12/13 06:18:53;;;;;;;4.03;3.00;;;;;;;2.63;83.80;99304.22;2566286;28;20501;-72
2021/12/13 06:20:15;;;;;;;4.47;3.03;;;;;;;2.65;83.90;99303.41;2566503;28;20073;-72
2021/12/13 06:21:30;;;;;;;;;;;;;;;2.59;83.99;99312.78;2567048;28;20047;-72
2021/12/13 06:22:47;;;;;;;4.20;3.08;;;;;;;2.51;84.38;99307.44;2566601;28;19926;-72
2021/12/13 06:24:03;;;;;;;5.28;3.42;;;;;;;2.51;84.85;99313.50;2566255;28;20050;-72
2021/12/13 06:25:24;;;;;;;4.47;3.30;;;;;;;2.44;84.98;99319.38;2565989;28;20058;-72
2021/12/13 06:26:40;;;;;;;7.03;4.60;;;;;;;2.33;84.56;99319.19;2563940;28;20066;-71
2021/12/13 06:28:00;;;;;;;16.80;9.20;;;;;;;2.23;84.67;99319.81;2555486;29;20047;-72
2021/12/13 06:29:17;;;;;;;14.20;8.70;;;;;;;2.19;85.09;99323.19;2560579;28;20481;-72
2021/12/13 06:30:38;;;;;;;13.32;8.35;;;;;;;2.13;85.45;99323.09;2565965;28;20059;-71
2021/12/13 06:31:54;;;;;;;29.98;13.32;;;;;;;2.07;85.51;99329.84;2555612;29;20062;-72
2021/12/13 06:33:12;;;;;;;27.40;13.82;;;;;;;2.04;85.93;99322.03;2559963;28;20051;-72
2021/12/13 06:34:28;;;;;;;34.17;17.50;;;;;;;1.98;86.14;99324.53;2566036;28;20058;-72
2021/12/13 06:35:46;;;;;;;25.88;14.10;;;;;;;1.97;86.30;99323.63;2566322;28;21003;-71
2021/12/13 06:37:06;;;;;;;33.00;16.88;;;;;;;1.94;86.53;99325.28;2566069;28;20051;-72
2021/12/13 06:38:47;;;;;;;32.60;16.27;;;;;;;1.92;86.73;99326.94;2565976;28;20050;-72
2021/12/13 06:40:26;;;;;;;32.97;16.60;;;;;;;1.86;86.84;99319.09;2565636;28;20054;-72
2021/12/13 06:41:58;;;;;;;34.55;17.60;;;;;;;1.84;87.21;99319.03;2566051;28;20062;-71
2021/12/13 06:43:35;;;;;;;26.52;13.85;;;;;;;1.83;87.41;99323.34;2566790;28;20063;-75